Time;durP1;ratioP1;P1;durP2;ratioP2;P2;SDS_P1;SDS_P2;PMS_P1;PMS_P2;Temp;Humidity;BMP_temperature;BMP_pressure;BME280_temperature;BME280_humidity;BME280_pressure;Samples;Min_cycle;Max_cycle;Signal;HPM_P1;HPM_P2
2021/01/14 00:00:38;;;;;;;4.78;3.95;;;;;;;;;;5014330;28;20562;-72
2021/01/14 00:03:08;;;;;;;4.28;3.88;;;;;;;;;;5014426;28;20050;-71
2021/01/14 00:05:34;;;;;;;4.13;3.72;;;;;;;;;;5014142;28;20112;-71
2021/01/14 00:08:00;;;;;;;4.38;3.75;;;;;;;;;;5014414;28;20046;-71
2021/01/14 00:10:26;;;;;;;4.75;4.25;;;;;;;;;;5012981;28;20069;-72
2021/01/14 00:12:53;;;;;;;4.28;3.85;;;;;;;;;;5014210;28;20050;-71
2021/01/14 00:15:19;;;;;;;4.80;4.30;;;;;;;;;;5013837;28;20077;-72
2021/01/14 00:17:45;;;;;;;5.40;4.55;;;;;;;;;;5014300;28;20046;-72
2021/01/14 00:20:20;;;;;;;4.95;3.97;;;;;;;;;;5012903;28;20069;-72
2021/01/14 00:22:46;;;;;;;5.35;4.70;;;;;;;;;;5013981;28;20558;-72
2021/01/14 00:25:14;;;;;;;5.25;4.72;;;;;;;;;;5013763;28;20077;-72
2021/01/14 00:27:40;;;;;;;4.95;4.18;;;;;;;;;;5013633;28;20054;-72
2021/01/14 00:30:35;;;;;;;4.70;3.85;;;;;;;;;;5013807;28;20049;-72
2021/01/14 00:33:01;;;;;;;5.53;3.90;;;;;;;;;;4993145;28;20461;-71
2021/01/14 00:35:28;;;;;;;3.75;3.22;;;;;;;;;;4994193;28;20440;-71
2021/01/14 00:37:55;;;;;;;3.50;2.92;;;;;;;;;;5009576;28;20081;-72
2021/01/14 00:40:21;;;;;;;4.32;3.20;;;;;;;;;;5013623;28;20107;-71
2021/01/14 00:42:59;;;;;;;3.67;2.80;;;;;;;;;;5013509;28;20100;-71
2021/01/14 00:45:26;;;;;;;3.38;2.90;;;;;;;;;;5013288;28;20053;-71
2021/01/14 00:47:52;;;;;;;3.50;3.20;;;;;;;;;;5012401;28;20092;-71
2021/01/14 00:50:19;;;;;;;4.78;3.30;;;;;;;;;;5013664;28;20124;-71
2021/01/14 00:52:45;;;;;;;3.70;3.25;;;;;;;;;;5012253;28;20069;-71
2021/01/14 00:55:13;;;;;;;4.78;3.30;;;;;;;;;;5013251;28;20045;-71
2021/01/14 00:57:40;;;;;;;3.90;3.50;;;;;;;;;;5012962;28;20046;-71
2021/01/14 01:00:11;;;;;;;3.10;2.80;;;;;;;;;;5012095;28;20088;-71
2021/01/14 01:02:39;;;;;;;4.13;3.22;;;;;;;;;;5013044;28;20144;-71
2021/01/14 01:05:06;;;;;;;4.78;3.20;;;;;;;;;;5012250;28;20104;-71
2021/01/14 01:07:32;;;;;;;4.57;3.30;;;;;;;;;;5013147;28;20049;-71
2021/01/14 01:09:58;;;;;;;6.18;3.63;;;;;;;;;;5013002;28;20096;-71
2021/01/14 01:12:24;;;;;;;4.20;3.67;;;;;;;;;;5012894;28;20424;-71
2021/01/14 01:14:51;;;;;;;4.50;3.65;;;;;;;;;;5012907;28;20469;-71
2021/01/14 01:17:17;;;;;;;4.07;3.55;;;;;;;;;;5012824;28;20497;-71
2021/01/14 01:19:43;;;;;;;5.13;3.90;;;;;;;;;;5012908;28;20073;-71
2021/01/14 01:22:09;;;;;;;4.45;3.80;;;;;;;;;;5012849;28;20540;-71
2021/01/14 01:24:35;;;;;;;5.32;4.45;;;;;;;;;;5012890;28;20046;-71
2021/01/14 01:27:01;;;;;;;5.18;4.13;;;;;;;;;;5013116;28;20103;-71
2021/01/14 01:29:27;;;;;;;5.13;3.88;;;;;;;;;;5012932;28;20104;-71
2021/01/14 01:31:53;;;;;;;6.30;4.20;;;;;;;;;;5012551;28;20112;-71
2021/01/14 01:34:19;;;;;;;7.05;4.25;;;;;;;;;;5011439;28;20049;-71
2021/01/14 01:36:50;;;;;;;6.50;4.40;;;;;;;;;;5012492;28;20054;-72
2021/01/14 01:39:16;;;;;;;5.88;4.38;;;;;;;;;;5012747;28;20100;-72
2021/01/14 01:41:42;;;;;;;7.70;5.20;;;;;;;;;;5012352;28;20096;-71
2021/01/14 01:44:08;;;;;;;4.60;3.78;;;;;;;;;;5012442;28;20054;-71
2021/01/14 01:46:34;;;;;;;5.38;4.35;;;;;;;;;;5012286;28;20567;-72
2021/01/14 01:49:00;;;;;;;5.43;4.43;;;;;;;;;;5011443;28;20050;-71
2021/01/14 01:51:32;;;;;;;6.18;4.35;;;;;;;;;;5012449;28;20058;-71
2021/01/14 01:53:58;;;;;;;5.82;4.82;;;;;;;;;;5013539;28;20046;-72
2021/01/14 01:56:24;;;;;;;5.15;4.63;;;;;;;;;;5011172;28;20050;-72
2021/01/14 01:58:54;;;;;;;7.10;5.28;;;;;;;;;;5012412;28;20050;-72
2021/01/14 02:01:25;;;;;;;5.20;4.43;;;;;;;;;;4995283;28;20049;-71
2021/01/14 02:03:51;;;;;;;5.40;4.43;;;;;;;;;;5011102;28;20046;-72
2021/01/14 02:06:17;;;;;;;6.05;5.00;;;;;;;;;;5012197;28;20058;-71
2021/01/14 02:09:04;;;;;;;5.25;4.32;;;;;;;;;;5010520;28;20100;-72
2021/01/14 02:11:34;;;;;;;5.72;4.80;;;;;;;;;;4997091;28;20081;-71
2021/01/14 02:14:19;;;;;;;5.82;4.70;;;;;;;;;;4991603;28;20536;-72
2021/01/14 02:16:46;;;;;;;6.25;4.80;;;;;;;;;;4991269;28;20054;-72
2021/01/14 02:19:38;;;;;;;6.03;4.25;;;;;;;;;;4992506;28;20050;-72
2021/01/14 02:22:17;;;;;;;5.47;4.47;;;;;;;;;;4987682;28;20086;-72
2021/01/14 02:24:49;;;;;;;6.07;4.70;;;;;;;;;;4991333;28;20046;-71
2021/01/14 02:27:15;;;;;;;8.55;4.85;;;;;;;;;;4975504;28;20097;-72
2021/01/14 02:29:41;;;;;;;6.13;4.80;;;;;;;;;;4991130;28;20497;-72
2021/01/14 02:32:17;;;;;;;5.43;3.60;;;;;;;;;;4991040;28;20506;-72
2021/01/14 02:34:44;;;;;;;6.53;4.55;;;;;;;;;;4991164;28;20083;-72
2021/01/14 02:37:11;;;;;;;5.53;4.15;;;;;;;;;;4992323;28;20077;-72
2021/01/14 02:39:38;;;;;;;5.90;4.13;;;;;;;;;;4998113;28;20409;-71
2021/01/14 02:42:04;;;;;;;4.50;3.70;;;;;;;;;;5011776;28;20056;-71
2021/01/14 02:44:30;;;;;;;4.38;3.08;;;;;;;;;;5011881;28;20073;-71
2021/01/14 02:46:56;;;;;;;3.53;3.22;;;;;;;;;;5011762;28;20104;-71
2021/01/14 02:49:23;;;;;;;4.45;3.60;;;;;;;;;;5010586;28;20054;-71
2021/01/14 02:51:51;;;;;;;3.15;2.70;;;;;;;;;;5010490;28;20475;-71
2021/01/14 02:54:17;;;;;;;3.85;2.72;;;;;;;;;;5010678;28;20050;-71
2021/01/14 02:56:46;;;;;;;3.40;2.47;;;;;;;;;;5010309;28;20049;-71
2021/01/14 02:59:13;;;;;;;4.35;2.65;;;;;;;;;;4994614;28;20054;-71
2021/01/14 03:01:39;;;;;;;4.15;2.55;;;;;;;;;;5011562;28;20054;-71
2021/01/14 03:04:05;;;;;;;2.88;2.05;;;;;;;;;;5010475;28;20501;-71
2021/01/14 03:06:31;;;;;;;2.47;2.13;;;;;;;;;;5011447;28;20096;-71
2021/01/14 03:08:57;;;;;;;5.15;2.60;;;;;;;;;;5010280;28;20076;-71
2021/01/14 03:11:32;;;;;;;4.10;2.60;;;;;;;;;;5011492;28;20107;-71
2021/01/14 03:13:58;;;;;;;3.33;2.30;;;;;;;;;;5011609;28;20073;-72
2021/01/14 03:16:25;;;;;;;4.97;2.35;;;;;;;;;;5011340;28;20050;-71
2021/01/14 03:18:51;;;;;;;6.40;3.05;;;;;;;;;;5011750;28;20061;-71
2021/01/14 03:21:19;;;;;;;3.15;2.60;;;;;;;;;;5012672;28;20050;-71
2021/01/14 03:23:45;;;;;;;5.03;2.63;;;;;;;;;;5015217;28;20104;-72
2021/01/14 03:26:12;;;;;;;2.55;2.30;;;;;;;;;;5015260;28;20049;-71
2021/01/14 03:28:39;;;;;;;4.63;2.42;;;;;;;;;;5015282;28;20093;-71
2021/01/14 03:31:05;;;;;;;2.72;2.30;;;;;;;;;;5015434;28;20112;-71
2021/01/14 03:33:31;;;;;;;3.45;2.53;;;;;;;;;;5014884;28;20080;-71
2021/01/14 03:35:58;;;;;;;3.08;2.45;;;;;;;;;;5015021;28;20111;-71
2021/01/14 03:38:25;;;;;;;4.55;2.80;;;;;;;;;;5015164;28;20073;-71
2021/01/14 03:40:51;;;;;;;5.72;2.88;;;;;;;;;;5014979;28;20108;-71
2021/01/14 03:43:17;;;;;;;2.85;2.30;;;;;;;;;;5014913;28;20045;-71
2021/01/14 03:45:43;;;;;;;3.70;2.70;;;;;;;;;;5014661;28;20054;-71
2021/01/14 03:48:09;;;;;;;6.18;2.80;;;;;;;;;;5015016;28;20410;-72
2021/01/14 03:50:35;;;;;;;3.97;2.75;;;;;;;;;;5014662;28;20132;-72
2021/01/14 03:53:01;;;;;;;4.32;2.78;;;;;;;;;;5014947;28;20053;-72
2021/01/14 03:55:27;;;;;;;4.82;3.50;;;;;;;;;;5014428;28;20049;-71
2021/01/14 03:57:53;;;;;;;5.50;3.30;;;;;;;;;;5014774;28;20054;-72
2021/01/14 04:00:20;;;;;;;4.03;3.25;;;;;;;;;;5013607;28;20096;-71
2021/01/14 04:02:46;;;;;;;5.75;3.60;;;;;;;;;;5014441;28;20077;-71
2021/01/14 04:05:12;;;;;;;4.97;3.42;;;;;;;;;;5014405;28;20069;-71
2021/01/14 04:07:39;;;;;;;8.93;3.65;;;;;;;;;;5014525;28;20137;-71
2021/01/14 04:10:05;;;;;;;4.32;3.15;;;;;;;;;;5014779;28;20046;-71
2021/01/14 04:12:31;;;;;;;4.95;3.30;;;;;;;;;;5013174;28;20050;-71
2021/01/14 04:14:58;;;;;;;4.95;3.67;;;;;;;;;;5014418;28;20100;-71
2021/01/14 04:17:27;;;;;;;5.18;3.42;;;;;;;;;;5014126;28;20053;-71
2021/01/14 04:19:54;;;;;;;5.03;3.40;;;;;;;;;;5014429;28;20100;-72
2021/01/14 04:22:20;;;;;;;6.15;3.70;;;;;;;;;;5014181;28;20405;-72
2021/01/14 04:24:46;;;;;;;5.93;3.50;;;;;;;;;;5015271;28;20042;-72
2021/01/14 04:27:12;;;;;;;5.60;3.50;;;;;;;;;;5014286;28;20046;-72
2021/01/14 04:29:38;;;;;;;8.98;3.53;;;;;;;;;;5014051;28;20096;-71
2021/01/14 04:32:04;;;;;;;6.28;4.25;;;;;;;;;;5013324;28;20111;-72
2021/01/14 04:34:30;;;;;;;7.25;3.38;;;;;;;;;;5013937;28;20086;-71
2021/01/14 04:37:01;;;;;;;7.60;4.68;;;;;;;;;;5013965;28;20104;-72
2021/01/14 04:39:27;;;;;;;6.57;3.83;;;;;;;;;;5014057;28;20045;-71
2021/01/14 04:41:58;;;;;;;6.13;4.00;;;;;;;;;;5013761;28;20046;-72
2021/01/14 04:44:25;;;;;;;6.22;4.40;;;;;;;;;;5013733;28;20076;-72
2021/01/14 04:46:57;;;;;;;5.30;4.13;;;;;;;;;;5013772;28;20093;-71
2021/01/14 04:49:23;;;;;;;7.28;4.88;;;;;;;;;;5012619;28;20100;-71
2021/01/14 04:51:49;;;;;;;8.13;4.45;;;;;;;;;;5012458;28;20054;-71
2021/01/14 04:54:17;;;;;;;7.72;4.68;;;;;;;;;;4996353;28;20119;-71
2021/01/14 04:56:46;;;;;;;8.68;5.10;;;;;;;;;;4996056;28;20120;-71
2021/01/14 04:59:14;;;;;;;6.93;4.30;;;;;;;;;;5012567;28;20045;-72
2021/01/14 05:01:41;;;;;;;6.85;4.68;;;;;;;;;;5012554;28;20199;-72
2021/01/14 05:04:07;;;;;;;10.00;4.80;;;;;;;;;;5014044;28;20050;-71
2021/01/14 05:06:36;;;;;;;7.60;4.45;;;;;;;;;;4996380;28;20107;-71
2021/01/14 05:09:06;;;;;;;7.15;4.22;;;;;;;;;;4996798;28;20084;-71
2021/01/14 05:11:59;;;;;;;7.97;4.72;;;;;;;;;;5013726;28;20054;-71
2021/01/14 05:14:25;;;;;;;;;;;;;;;;;;5012497;28;20394;-71
2021/01/14 05:16:52;;;;;;;9.98;5.03;;;;;;;;;;5013097;28;19975;-71
2021/01/14 05:19:18;;;;;;;7.30;4.88;;;;;;;;;;5013324;28;20049;-71
2021/01/14 05:21:45;;;;;;;9.27;5.70;;;;;;;;;;5011915;28;20053;-71
2021/01/14 05:24:16;;;;;;;10.23;5.55;;;;;;;;;;5012921;28;20050;-71
2021/01/14 05:26:43;;;;;;;12.07;6.78;;;;;;;;;;5012852;28;20120;-71
2021/01/14 05:29:16;;;;;;;12.60;6.00;;;;;;;;;;5013053;28;20081;-72
2021/01/14 05:31:43;;;;;;;11.57;6.45;;;;;;;;;;5012944;28;20562;-71
2021/01/14 05:34:13;;;;;;;12.88;7.28;;;;;;;;;;5074200;22;20046;-72
2021/01/14 05:37:05;;;;;;;11.93;6.20;;;;;;;;;;5024694;28;20415;-73
2021/01/14 05:39:41;;;;;;;14.32;6.68;;;;;;;;;;5025210;28;20304;-73
2021/01/14 05:42:10;;;;;;;11.13;6.35;;;;;;;;;;5025309;28;20075;-72
2021/01/14 05:44:42;;;;;;;9.73;6.35;;;;;;;;;;5016011;28;20105;-72
2021/01/14 05:47:19;;;;;;;13.30;6.55;;;;;;;;;;4986040;28;20455;-72
2021/01/14 05:49:58;;;;;;;13.20;6.78;;;;;;;;;;5002154;28;20123;-72
2021/01/14 05:52:25;;;;;;;10.85;6.20;;;;;;;;;;5018275;28;20148;-72
2021/01/14 05:54:58;;;;;;;9.18;5.93;;;;;;;;;;5017780;28;20100;-72
2021/01/14 05:57:28;;;;;;;;;;;;;;;;;;5018126;28;20107;-72
2021/01/14 05:59:57;;;;;;;11.05;6.00;;;;;;;;;;5001598;28;19952;-72
2021/01/14 06:02:30;;;;;;;9.73;6.15;;;;;;;;;;4986342;28;20062;-72
2021/01/14 06:04:58;;;;;;;8.20;5.95;;;;;;;;;;5018677;28;20497;-72
2021/01/14 06:07:37;;;;;;;12.25;6.32;;;;;;;;;;5001378;28;20054;-72
2021/01/14 06:10:03;;;;;;;9.98;6.38;;;;;;;;;;5017019;28;20104;-72
2021/01/14 06:12:29;;;;;;;10.10;6.65;;;;;;;;;;5017409;28;20051;-72
2021/01/14 06:14:56;;;;;;;12.07;7.20;;;;;;;;;;5001701;28;20054;-72
2021/01/14 06:17:31;;;;;;;13.38;7.28;;;;;;;;;;5017869;28;20108;-72
2021/01/14 06:20:08;;;;;;;12.18;8.10;;;;;;;;;;4985799;28;20112;-72
2021/01/14 06:22:37;;;;;;;11.18;6.68;;;;;;;;;;5001271;28;20049;-72
2021/01/14 06:25:05;;;;;;;15.95;7.90;;;;;;;;;;5017701;28;20103;-72
2021/01/14 06:27:32;;;;;;;14.55;8.23;;;;;;;;;;4984735;28;20136;-72
2021/01/14 06:30:07;;;;;;;13.88;8.45;;;;;;;;;;4986325;28;20420;-72
2021/01/14 06:32:37;;;;;;;14.38;8.40;;;;;;;;;;5018206;28;20077;-72
2021/01/14 06:35:07;;;;;;;13.35;8.10;;;;;;;;;;5000270;28;20038;-73
2021/01/14 06:37:37;;;;;;;16.13;8.30;;;;;;;;;;4996630;28;20081;-72
2021/01/14 06:40:07;;;;;;;11.80;7.88;;;;;;;;;;4981659;28;20054;-72
2021/01/14 06:42:34;;;;;;;12.63;7.72;;;;;;;;;;4965126;28;20046;-72
2021/01/14 06:45:08;;;;;;;13.40;7.57;;;;;;;;;;4981018;28;20054;-73
2021/01/14 06:47:45;;;;;;;11.80;7.68;;;;;;;;;;5013870;28;20046;-73
2021/01/14 06:50:26;;;;;;;11.77;7.78;;;;;;;;;;5011044;28;20050;-72
2021/01/14 06:52:53;;;;;;;12.10;7.55;;;;;;;;;;4980149;28;20112;-72
2021/01/14 06:55:23;;;;;;;13.23;8.20;;;;;;;;;;4996952;28;20046;-72
2021/01/14 06:58:15;;;;;;;12.90;7.72;;;;;;;;;;4983914;28;20055;-73
2021/01/14 07:00:43;;;;;;;13.05;8.75;;;;;;;;;;4998869;28;20102;-72
2021/01/14 07:03:12;;;;;;;11.02;7.88;;;;;;;;;;4968077;28;20054;-73
2021/01/14 07:05:53;;;;;;;13.50;8.38;;;;;;;;;;5004475;28;20098;-72
2021/01/14 07:08:29;;;;;;;12.77;8.43;;;;;;;;;;5000346;28;20512;-72
2021/01/14 07:11:15;;;;;;;11.27;8.05;;;;;;;;;;5001450;28;20050;-73
2021/01/14 07:13:51;;;;;;;12.05;7.93;;;;;;;;;;5001016;28;20046;-73
2021/01/14 07:16:19;;;;;;;16.98;8.82;;;;;;;;;;4999698;28;20050;-73
2021/01/14 07:18:47;;;;;;;12.88;8.40;;;;;;;;;;5006198;28;20049;-72
2021/01/14 07:21:35;;;;;;;13.00;8.65;;;;;;;;;;5023867;28;20076;-73
2021/01/14 07:24:05;;;;;;;13.52;7.70;;;;;;;;;;5022717;28;20050;-72
2021/01/14 07:26:32;;;;;;;13.27;8.07;;;;;;;;;;5019701;28;20108;-72
2021/01/14 07:29:01;;;;;;;15.27;8.45;;;;;;;;;;5013166;28;20115;-72
2021/01/14 07:31:27;;;;;;;12.98;8.35;;;;;;;;;;4981523;28;20530;-72
2021/01/14 07:33:54;;;;;;;11.57;8.30;;;;;;;;;;4979321;28;20737;-72
2021/01/14 07:36:25;;;;;;;11.45;7.45;;;;;;;;;;4975816;28;20054;-72
2021/01/14 07:38:55;;;;;;;12.82;9.43;;;;;;;;;;4992196;28;20054;-71
2021/01/14 07:41:23;;;;;;;14.57;8.75;;;;;;;;;;5022827;28;20054;-71
2021/01/14 07:43:49;;;;;;;12.38;9.52;;;;;;;;;;4995206;28;20054;-71
2021/01/14 07:46:23;;;;;;;14.60;8.55;;;;;;;;;;5011758;28;20497;-72
2021/01/14 07:48:50;;;;;;;9.77;7.63;;;;;;;;;;4996160;28;20094;-71
2021/01/14 07:51:16;;;;;;;10.30;8.32;;;;;;;;;;5011295;28;20049;-71
2021/01/14 07:53:45;;;;;;;15.70;8.25;;;;;;;;;;5011364;28;20451;-72
2021/01/14 07:56:27;;;;;;;12.13;8.68;;;;;;;;;;4995499;28;20552;-72
2021/01/14 07:58:55;;;;;;;11.90;7.90;;;;;;;;;;5014118;28;20049;-72
2021/01/14 08:01:22;;;;;;;12.60;9.45;;;;;;;;;;5015355;28;20045;-72
2021/01/14 08:03:48;;;;;;;13.77;10.07;;;;;;;;;;5015172;28;20053;-72
2021/01/14 08:06:25;;;;;;;15.73;10.18;;;;;;;;;;5010601;28;20513;-71
2021/01/14 08:09:03;;;;;;;12.95;8.82;;;;;;;;;;5012655;28;20061;-71
2021/01/14 08:11:33;;;;;;;14.07;10.55;;;;;;;;;;5012585;28;20054;-72
2021/01/14 08:14:02;;;;;;;15.07;9.43;;;;;;;;;;5012711;28;20157;-71
2021/01/14 08:16:32;;;;;;;13.45;10.23;;;;;;;;;;5011617;28;20491;-71
2021/01/14 08:19:15;;;;;;;13.27;9.60;;;;;;;;;;5012305;28;20483;-71
2021/01/14 08:21:49;;;;;;;12.73;9.50;;;;;;;;;;5011219;28;20462;-72
2021/01/14 08:24:37;;;;;;;13.20;8.80;;;;;;;;;;5011693;28;20046;-72
2021/01/14 08:27:07;;;;;;;11.82;9.02;;;;;;;;;;5008450;28;20104;-72
2021/01/14 08:29:39;;;;;;;12.20;9.25;;;;;;;;;;4998226;28;20457;-73
2021/01/14 08:32:28;;;;;;;13.88;9.07;;;;;;;;;;5008330;28;20054;-73
2021/01/14 08:35:14;;;;;;;15.00;9.23;;;;;;;;;;4975390;28;20058;-73
2021/01/14 08:37:52;;;;;;;14.93;8.93;;;;;;;;;;5000590;28;20073;-72
2021/01/14 08:40:26;;;;;;;12.30;9.20;;;;;;;;;;5000741;28;20086;-72
2021/01/14 08:43:01;;;;;;;15.07;9.52;;;;;;;;;;4982509;28;20099;-72
2021/01/14 08:45:28;;;;;;;12.68;8.90;;;;;;;;;;4995019;28;20050;-73
2021/01/14 08:47:56;;;;;;;14.55;9.80;;;;;;;;;;5009577;28;20050;-73
2021/01/14 08:50:35;;;;;;;12.38;9.05;;;;;;;;;;5006271;28;20464;-72
2021/01/14 08:53:01;;;;;;;13.90;8.32;;;;;;;;;;5007613;28;20133;-70
2021/01/14 08:55:29;;;;;;;14.60;9.32;;;;;;;;;;4994306;28;20104;-70
2021/01/14 08:57:56;;;;;;;13.45;8.45;;;;;;;;;;5010321;28;20042;-73
2021/01/14 09:00:24;;;;;;;18.15;9.32;;;;;;;;;;5010588;28;20072;-73
2021/01/14 09:02:51;;;;;;;11.82;8.98;;;;;;;;;;4991531;28;20513;-73
2021/01/14 09:05:17;;;;;;;11.60;8.13;;;;;;;;;;5008570;28;20046;-73
2021/01/14 09:08:05;;;;;;;13.63;8.63;;;;;;;;;;5009687;28;20500;-73
2021/01/14 09:10:39;;;;;;;13.50;8.50;;;;;;;;;;5006443;28;20046;-73
2021/01/14 09:13:07;;;;;;;12.43;8.35;;;;;;;;;;5010822;28;20045;-74
2021/01/14 09:15:33;;;;;;;13.07;8.27;;;;;;;;;;5010430;28;20585;-73
2021/01/14 09:18:00;;;;;;;11.82;8.65;;;;;;;;;;5012206;28;20210;-73
2021/01/14 09:20:26;;;;;;;15.80;10.27;;;;;;;;;;4994706;28;20053;-74
2021/01/14 09:22:52;;;;;;;18.25;10.07;;;;;;;;;;5027632;28;20080;-73
2021/01/14 09:25:38;;;;;;;13.73;8.73;;;;;;;;;;5012626;28;20050;-73
2021/01/14 09:28:07;;;;;;;14.32;9.93;;;;;;;;;;5010836;28;20053;-73
2021/01/14 09:30:34;;;;;;;13.68;9.52;;;;;;;;;;5009878;28;20500;-74
2021/01/14 09:33:00;;;;;;;16.42;10.68;;;;;;;;;;5010533;28;20061;-73
2021/01/14 09:35:27;;;;;;;15.35;11.48;;;;;;;;;;5012549;28;20144;-73
2021/01/14 09:37:56;;;;;;;15.18;10.13;;;;;;;;;;4992278;28;20050;-73
2021/01/14 09:40:22;;;;;;;13.90;9.35;;;;;;;;;;4992039;28;20078;-73
2021/01/14 09:42:52;;;;;;;14.85;10.85;;;;;;;;;;4991769;28;20108;-73
2021/01/14 09:45:19;;;;;;;15.23;9.23;;;;;;;;;;4975946;28;20105;-73
2021/01/14 09:47:49;;;;;;;21.75;12.77;;;;;;;;;;4993471;28;20058;-73
2021/01/14 09:50:16;;;;;;;17.40;12.02;;;;;;;;;;4991823;28;20054;-73
2021/01/14 09:52:42;;;;;;;17.02;12.05;;;;;;;;;;4975735;28;20096;-74
2021/01/14 09:55:14;;;;;;;14.50;10.32;;;;;;;;;;4975540;28;20046;-73
2021/01/14 09:57:54;;;;;;;15.43;10.57;;;;;;;;;;4992920;28;20100;-73
2021/01/14 10:00:25;;;;;;;17.25;11.68;;;;;;;;;;4979826;28;20448;-74
2021/01/14 10:02:54;;;;;;;15.55;10.38;;;;;;;;;;4979146;28;20103;-74
2021/01/14 10:05:21;;;;;;;17.73;11.13;;;;;;;;;;4978621;28;20064;-73
2021/01/14 10:07:53;;;;;;;14.88;10.18;;;;;;;;;;4995455;28;20050;-72
2021/01/14 10:10:19;;;;;;;12.15;9.25;;;;;;;;;;4995176;28;20100;-72
2021/01/14 10:12:53;;;;;;;20.25;10.93;;;;;;;;;;5010987;28;20394;-72
2021/01/14 10:15:20;;;;;;;18.58;10.68;;;;;;;;;;4995510;28;20096;-73
2021/01/14 10:17:46;;;;;;;14.70;9.77;;;;;;;;;;5011524;28;20209;-72
2021/01/14 10:20:12;;;;;;;15.80;10.02;;;;;;;;;;5011228;28;20046;-75
2021/01/14 10:22:49;;;;;;;16.15;9.60;;;;;;;;;;4978518;28;20108;-74
2021/01/14 10:25:15;;;;;;;13.30;9.10;;;;;;;;;;4992828;28;20077;-74
2021/01/14 10:27:41;;;;;;;13.80;9.18;;;;;;;;;;4986912;28;20119;-73
2021/01/14 10:30:21;;;;;;;14.23;9.75;;;;;;;;;;4983460;28;20103;-74
2021/01/14 10:32:48;;;;;;;12.70;9.70;;;;;;;;;;5008562;28;20053;-72
2021/01/14 10:35:33;;;;;;;14.07;9.93;;;;;;;;;;5009086;28;20104;-74
2021/01/14 10:38:00;;;;;;;14.50;9.85;;;;;;;;;;5010122;28;20136;-72
2021/01/14 10:40:32;;;;;;;13.00;9.35;;;;;;;;;;5006846;28;20057;-76
2021/01/14 10:43:00;;;;;;;12.60;9.30;;;;;;;;;;4995154;28;20064;-73
2021/01/14 10:45:29;;;;;;;16.75;9.90;;;;;;;;;;5008459;28;20050;-78
2021/01/14 10:48:12;;;;;;;17.15;10.40;;;;;;;;;;4994180;28;20050;-77
2021/01/14 10:50:46;;;;;;;13.50;9.07;;;;;;;;;;5010417;28;20049;-74
2021/01/14 10:53:13;;;;;;;12.02;9.38;;;;;;;;;;5009345;28;20045;-69
2021/01/14 10:55:40;;;;;;;14.77;8.77;;;;;;;;;;4992800;28;20135;-69
2021/01/14 10:58:06;;;;;;;15.02;9.07;;;;;;;;;;5008904;28;20053;-72
2021/01/14 11:00:37;;;;;;;15.32;8.25;;;;;;;;;;4975128;28;20042;-71
2021/01/14 11:03:12;;;;;;;12.85;7.95;;;;;;;;;;5008134;28;20505;-72
2021/01/14 11:05:52;;;;;;;13.80;9.30;;;;;;;;;;4993106;28;20050;-72
2021/01/14 11:08:27;;;;;;;13.07;8.23;;;;;;;;;;5008388;28;20100;-72
2021/01/14 11:11:05;;;;;;;11.85;8.05;;;;;;;;;;5007801;28;20057;-75
2021/01/14 11:13:39;;;;;;;10.85;8.32;;;;;;;;;;4993233;28;20807;-72
2021/01/14 11:16:08;;;;;;;13.25;8.35;;;;;;;;;;4993503;28;20076;-72
2021/01/14 11:18:36;;;;;;;15.23;8.57;;;;;;;;;;5008644;28;20100;-74
2021/01/14 11:21:03;;;;;;;9.60;7.60;;;;;;;;;;4992972;28;20050;-75
2021/01/14 11:23:29;;;;;;;13.40;7.82;;;;;;;;;;4985669;28;20042;-73
2021/01/14 11:25:56;;;;;;;16.38;8.18;;;;;;;;;;5008619;28;20038;-74
2021/01/14 11:28:22;;;;;;;10.27;7.53;;;;;;;;;;5008688;28;20170;-73
2021/01/14 11:30:48;;;;;;;10.23;6.80;;;;;;;;;;5009426;28;20546;-71
2021/01/14 11:33:14;;;;;;;9.45;6.07;;;;;;;;;;5045247;22;20079;-67
2021/01/14 11:35:40;;;;;;;10.98;6.00;;;;;;;;;;5069117;28;20084;-67
2021/01/14 11:38:06;;;;;;;10.32;6.72;;;;;;;;;;5069932;28;20052;-69
2021/01/14 11:40:32;;;;;;;9.13;6.03;;;;;;;;;;5068151;28;20125;-68
2021/01/14 11:42:58;;;;;;;9.50;5.60;;;;;;;;;;5071596;28;20056;-69
2021/01/14 11:45:24;;;;;;;11.10;6.00;;;;;;;;;;5061203;28;20041;-69
2021/01/14 11:47:50;;;;;;;9.32;5.63;;;;;;;;;;5062941;28;20495;-68
2021/01/14 11:50:16;;;;;;;6.30;5.28;;;;;;;;;;5062257;28;20053;-68
2021/01/14 11:52:42;;;;;;;11.60;6.20;;;;;;;;;;5064195;28;20106;-69
2021/01/14 11:55:09;;;;;;;9.73;5.45;;;;;;;;;;5062185;28;20048;-69
2021/01/14 11:57:36;;;;;;;12.10;5.70;;;;;;;;;;5059887;28;20102;-69
2021/01/14 12:00:05;;;;;;;7.60;5.65;;;;;;;;;;5035431;28;20388;-69
2021/01/14 12:02:31;;;;;;;8.90;6.18;;;;;;;;;;5055961;28;20079;-69
2021/01/14 12:04:58;;;;;;;9.38;4.93;;;;;;;;;;5063295;28;20072;-70
2021/01/14 12:07:24;;;;;;;8.82;4.70;;;;;;;;;;5056891;28;20163;-71
2021/01/14 12:09:50;;;;;;;7.22;4.38;;;;;;;;;;5062168;28;20134;-68
2021/01/14 12:12:16;;;;;;;11.18;5.93;;;;;;;;;;5060633;28;20263;-69
2021/01/14 12:14:42;;;;;;;12.40;5.43;;;;;;;;;;5061556;28;20488;-68
2021/01/14 12:17:08;;;;;;;9.70;5.50;;;;;;;;;;5061216;28;20088;-68
2021/01/14 12:19:34;;;;;;;9.05;5.20;;;;;;;;;;5056956;28;20049;-68
2021/01/14 12:22:04;;;;;;;8.02;5.82;;;;;;;;;;5060699;28;20055;-69
2021/01/14 12:24:30;;;;;;;6.88;5.30;;;;;;;;;;5062373;28;20048;-68
2021/01/14 12:26:57;;;;;;;11.23;5.15;;;;;;;;;;5062758;28;20052;-68
2021/01/14 12:29:23;;;;;;;8.55;5.30;;;;;;;;;;5060082;28;20049;-67
2021/01/14 12:31:50;;;;;;;9.85;5.45;;;;;;;;;;5060201;28;20052;-67
2021/01/14 12:34:16;;;;;;;8.93;5.35;;;;;;;;;;5062572;28;20392;-67
2021/01/14 12:36:42;;;;;;;7.72;4.57;;;;;;;;;;5065356;28;20049;-67
2021/01/14 12:39:09;;;;;;;12.13;5.85;;;;;;;;;;5058685;28;20097;-68
2021/01/14 12:41:35;;;;;;;9.25;5.68;;;;;;;;;;5063260;28;20458;-68
2021/01/14 12:44:02;;;;;;;12.27;5.68;;;;;;;;;;5071595;28;20102;-68
2021/01/14 12:46:41;;;;;;;11.52;5.63;;;;;;;;;;5069169;28;20076;-67
2021/01/14 12:49:13;;;;;;;7.93;5.05;;;;;;;;;;5053602;28;20049;-66
2021/01/14 12:51:39;;;;;;;8.35;4.63;;;;;;;;;;5053206;28;20067;-66
2021/01/14 12:54:06;;;;;;;9.80;5.00;;;;;;;;;;5052650;28;20049;-68
2021/01/14 12:56:33;;;;;;;7.68;5.07;;;;;;;;;;5051046;28;20132;-68
2021/01/14 12:59:02;;;;;;;8.35;4.63;;;;;;;;;;5036767;28;20062;-69
2021/01/14 13:01:38;;;;;;;11.23;5.53;;;;;;;;;;5055957;28;20462;-68
2021/01/14 13:04:06;;;;;;;10.82;5.40;;;;;;;;;;5061306;28;20564;-69
2021/01/14 13:06:37;;;;;;;10.38;5.55;;;;;;;;;;5058435;28;20048;-69
2021/01/14 13:09:07;;;;;;;10.65;5.50;;;;;;;;;;5063230;28;20412;-68
2021/01/14 13:11:34;;;;;;;8.50;5.20;;;;;;;;;;5050303;28;20041;-69
2021/01/14 13:14:00;;;;;;;11.73;5.40;;;;;;;;;;5043759;28;20474;-68
2021/01/14 13:16:37;;;;;;;10.07;6.03;;;;;;;;;;5048649;28;20048;-68
2021/01/14 13:19:04;;;;;;;10.90;5.18;;;;;;;;;;5043618;28;20103;-69
2021/01/14 13:21:33;;;;;;;10.75;5.28;;;;;;;;;;5045689;28;20041;-68
2021/01/14 13:24:00;;;;;;;10.32;5.40;;;;;;;;;;5045719;28;20056;-68
2021/01/14 13:26:26;;;;;;;12.32;5.88;;;;;;;;;;5045555;28;20545;-69
2021/01/14 13:28:52;;;;;;;10.98;6.30;;;;;;;;;;5044541;28;20115;-67
2021/01/14 13:31:18;;;;;;;11.35;6.35;;;;;;;;;;5047316;28;20049;-69
2021/01/14 13:33:44;;;;;;;9.10;5.50;;;;;;;;;;5045289;28;20053;-70
2021/01/14 13:36:11;;;;;;;9.30;6.18;;;;;;;;;;5045912;28;20433;-70
2021/01/14 13:38:37;;;;;;;8.07;4.85;;;;;;;;;;5045539;28;20052;-68
2021/01/14 13:41:03;;;;;;;8.13;5.13;;;;;;;;;;5046973;28;20056;-69
2021/01/14 13:43:29;;;;;;;9.20;5.20;;;;;;;;;;5046422;28;20076;-69
2021/01/14 13:45:59;;;;;;;7.30;5.40;;;;;;;;;;5045533;28;20461;-69
2021/01/14 13:48:25;;;;;;;10.35;5.68;;;;;;;;;;5046614;28;20040;-68
2021/01/14 13:50:52;;;;;;;13.18;6.07;;;;;;;;;;5045632;28;20119;-69
2021/01/14 13:53:18;;;;;;;11.18;6.32;;;;;;;;;;5046871;28;20110;-68
2021/01/14 13:55:44;;;;;;;12.02;5.85;;;;;;;;;;5042032;28;20107;-70
2021/01/14 13:58:12;;;;;;;9.35;5.53;;;;;;;;;;5038517;28;20136;-70
2021/01/14 14:00:44;;;;;;;12.68;7.13;;;;;;;;;;5039312;28;20119;-70
2021/01/14 14:03:11;;;;;;;11.13;5.85;;;;;;;;;;5040497;28;20114;-69
2021/01/14 14:05:41;;;;;;;9.55;5.45;;;;;;;;;;5042299;28;20423;-69
2021/01/14 14:08:07;;;;;;;8.85;5.43;;;;;;;;;;5043717;28;20533;-70
2021/01/14 14:10:34;;;;;;;10.27;5.20;;;;;;;;;;5042614;28;20052;-69
2021/01/14 14:13:00;;;;;;;9.48;5.85;;;;;;;;;;5046246;28;20056;-68
2021/01/14 14:15:26;;;;;;;9.55;5.30;;;;;;;;;;5044035;28;20044;-68
2021/01/14 14:17:53;;;;;;;9.20;5.65;;;;;;;;;;5043627;28;20045;-68
2021/01/14 14:20:19;;;;;;;6.63;5.28;;;;;;;;;;5044693;28;20081;-69
2021/01/14 14:22:45;;;;;;;10.57;6.35;;;;;;;;;;5043467;28;20723;-70
2021/01/14 14:25:12;;;;;;;10.80;6.22;;;;;;;;;;5041915;28;20069;-68
2021/01/14 14:27:38;;;;;;;12.73;6.18;;;;;;;;;;5042529;28;20079;-71
2021/01/14 14:30:05;;;;;;;8.80;6.15;;;;;;;;;;5045721;28;20080;-71
2021/01/14 14:32:31;;;;;;;11.43;6.00;;;;;;;;;;5028460;28;20539;-69
2021/01/14 14:34:57;;;;;;;10.10;5.93;;;;;;;;;;5044654;28;20110;-69
2021/01/14 14:37:23;;;;;;;12.73;6.50;;;;;;;;;;5045107;28;20056;-69
2021/01/14 14:39:49;;;;;;;10.80;6.03;;;;;;;;;;5044360;28;20466;-67
2021/01/14 14:42:15;;;;;;;9.52;5.75;;;;;;;;;;5045192;28;20100;-67
2021/01/14 14:44:42;;;;;;;16.08;6.90;;;;;;;;;;5043243;28;20100;-68
2021/01/14 14:47:08;;;;;;;10.95;5.97;;;;;;;;;;5046758;28;20049;-67